Moorefield, West Virginia
Current Conditions -  °F | °C
As of 10:15 PM on Monday 20 Oct 2014 (Local Time) from K8W2 Reporting Station
Overcast Overcast  
Wind Chill: 55°   Ceiling: 9000
Heat Index: 55°   Visibility: 10mi
Dew Point: 51°   Wind: 0mph
Humidity: 86%   Direction: NA
Pressure: 29.93"   Gusts: NA
Location:  39.06°N, 78.97°W
Report Text: K8W2 210215Z AUTO 00000KT 10SM SCT070 OVC090 13/11 A2993 RMK AO1 T01300107
Loading
Personal Weather Stations






























Interactive Weather Map
Tropical Storm Tracking
New forecast layout! Learn more

10-Day Weather Forecast

Advertisements
Track Severe Weather on mobile